createdAt,value
2018-09-08T00:01:31.686Z,9.15
2018-09-08T00:04:07.271Z,10.30
2018-09-08T00:06:42.889Z,10.28
2018-09-08T00:09:18.420Z,8.75
2018-09-08T00:11:53.730Z,8.93
2018-09-08T00:14:28.919Z,12.13
2018-09-08T00:17:09.441Z,10.70
2018-09-08T00:19:49.930Z,15.78
2018-09-08T00:22:30.590Z,12.65
2018-09-08T00:25:11.149Z,13.85
2018-09-08T00:27:51.613Z,10.30
2018-09-08T00:30:27.308Z,11.45
2018-09-08T00:33:02.910Z,9.95
2018-09-08T00:35:38.575Z,11.18
2018-09-08T00:38:14.011Z,9.78
2018-09-08T00:40:49.583Z,10.55
2018-09-08T00:43:25.157Z,10.65
2018-09-08T00:46:00.432Z,10.98
2018-09-08T00:48:35.879Z,11.90
2018-09-08T00:51:11.175Z,15.40
2018-09-08T00:53:46.897Z,12.58
2018-09-08T00:56:22.269Z,10.68
2018-09-08T00:59:02.746Z,12.35
2018-09-08T01:01:38.089Z,10.78
2018-09-08T01:04:13.429Z,13.70
2018-09-08T01:06:48.828Z,12.20
2018-09-08T01:09:24.279Z,13.15
2018-09-08T01:11:59.677Z,10.68
2018-09-08T01:14:35.447Z,11.65
2018-09-08T01:17:11.148Z,11.73
2018-09-08T01:19:46.685Z,11.25
2018-09-08T01:22:22.249Z,14.47
2018-09-08T01:24:57.607Z,8.90
2018-09-08T01:27:32.887Z,10.10
2018-09-08T01:30:08.287Z,9.08
2018-09-08T01:32:43.528Z,11.93
2018-09-08T01:35:18.966Z,14.28
2018-09-08T01:37:54.129Z,11.22
2018-09-08T01:40:29.517Z,8.68
2018-09-08T01:43:04.942Z,10.80
2018-09-08T01:45:40.606Z,10.32
2018-09-08T01:48:16.051Z,11.83
2018-09-08T01:50:51.549Z,9.88
2018-09-08T01:53:26.627Z,13.85
2018-09-08T01:56:02.027Z,12.80
2018-09-08T01:58:37.433Z,12.30
2018-09-08T02:01:12.840Z,13.78
2018-09-08T02:03:48.407Z,9.58
2018-09-08T02:06:23.664Z,9.48
2018-09-08T02:08:59.199Z,13.08
2018-09-08T02:11:34.741Z,11.05
2018-09-08T02:14:10.059Z,8.48
2018-09-08T02:16:45.475Z,10.10
2018-09-08T02:19:20.947Z,9.95
2018-09-08T02:21:56.453Z,17.25
2018-09-08T02:24:32.019Z,9.33
2018-09-08T02:27:07.609Z,12.50
2018-09-08T02:29:43.003Z,9.95
2018-09-08T02:32:18.309Z,10.85
2018-09-08T02:34:53.811Z,9.80
2018-09-08T02:37:29.278Z,9.55
2018-09-08T02:40:04.649Z,11.90
2018-09-08T02:42:40.107Z,10.18
2018-09-08T02:45:15.560Z,10.78
2018-09-08T02:47:51.609Z,10.03
2018-09-08T02:50:29.733Z,9.58
2018-09-08T02:53:04.204Z,10.00
2018-09-08T02:55:38.493Z,9.43
2018-09-08T02:58:12.340Z,12.68
2018-09-08T03:00:46.396Z,10.55
2018-09-08T03:03:20.331Z,9.48
2018-09-08T03:05:54.175Z,9.00
2018-09-08T03:08:28.134Z,10.20
2018-09-08T03:11:02.089Z,9.28
2018-09-08T03:13:35.950Z,12.90
2018-09-08T03:16:09.842Z,9.90
2018-09-08T03:18:43.719Z,8.15
2018-09-08T03:21:17.714Z,10.18
2018-09-08T03:23:51.889Z,12.15
2018-09-08T03:26:25.854Z,12.37
2018-09-08T03:28:59.802Z,10.95
2018-09-08T03:31:33.767Z,7.60
2018-09-08T03:34:08.003Z,9.53
2018-09-08T03:36:42.046Z,13.53
2018-09-08T03:39:16.006Z,13.58
2018-09-08T03:41:50.066Z,11.83
2018-09-08T03:44:24.029Z,18.00
2018-09-08T03:46:57.866Z,13.90
2018-09-08T03:49:31.919Z,13.53
2018-09-08T03:52:05.767Z,14.05
2018-09-08T03:54:39.726Z,15.65
2018-09-08T03:57:13.687Z,17.35
2018-09-08T03:59:47.817Z,17.90
2018-09-08T04:02:21.752Z,16.50
2018-09-08T04:04:57.027Z,14.33
2018-09-08T04:07:32.408Z,18.17
2018-09-08T04:10:07.839Z,13.50
2018-09-08T04:12:43.279Z,11.43
2018-09-08T04:15:18.806Z,18.30
2018-09-08T04:17:54.379Z,17.12
2018-09-08T04:20:29.872Z,13.62
2018-09-08T04:23:05.193Z,13.55
2018-09-08T04:25:40.619Z,12.95
2018-09-08T04:28:16.058Z,13.00
2018-09-08T04:30:51.427Z,11.68
2018-09-08T04:33:26.836Z,18.60
2018-09-08T04:36:02.828Z,12.80
2018-09-08T04:38:38.411Z,20.70
2018-09-08T04:41:13.875Z,15.95
2018-09-08T04:43:49.579Z,19.65
2018-09-08T04:46:25.095Z,20.32
2018-09-08T04:49:00.424Z,16.75
2018-09-08T04:51:35.660Z,16.95
2018-09-08T04:54:11.226Z,16.10
2018-09-08T04:56:46.846Z,18.85
2018-09-08T04:59:22.146Z,16.93
2018-09-08T05:01:57.558Z,21.02
2018-09-08T05:04:32.659Z,19.73
2018-09-08T05:07:08.219Z,20.12
2018-09-08T05:09:43.468Z,16.07
2018-09-08T05:12:18.914Z,17.48
2018-09-08T05:14:54.460Z,15.78
2018-09-08T05:17:29.888Z,16.17
2018-09-08T05:20:05.686Z,14.75
2018-09-08T05:22:41.160Z,15.40
2018-09-08T05:25:16.586Z,18.17
2018-09-08T05:27:52.165Z,20.88
2018-09-08T05:30:27.568Z,17.77
2018-09-08T05:33:03.033Z,13.08
2018-09-08T05:35:38.605Z,17.62
2018-09-08T05:38:14.079Z,13.30
2018-09-08T05:40:49.476Z,11.90
2018-09-08T05:43:24.849Z,19.90
2018-09-08T05:46:00.219Z,16.73
2018-09-08T05:48:35.831Z,17.35
2018-09-08T05:51:11.186Z,15.78
2018-09-08T05:53:46.479Z,15.93
2018-09-08T05:56:21.706Z,14.68
2018-09-08T05:58:57.026Z,20.40
2018-09-08T06:01:32.325Z,12.45
2018-09-08T06:04:07.919Z,12.82
2018-09-08T06:06:43.240Z,11.15
2018-09-08T06:09:18.619Z,12.58
2018-09-08T06:11:53.936Z,12.33
2018-09-08T06:14:30.229Z,20.95
2018-09-08T06:17:05.869Z,14.73
2018-09-08T06:19:41.287Z,12.98
2018-09-08T06:22:16.578Z,14.90
2018-09-08T06:24:52.070Z,11.15
2018-09-08T06:27:27.532Z,12.45
2018-09-08T06:30:02.976Z,12.95
2018-09-08T06:32:38.575Z,14.15
2018-09-08T06:35:14.120Z,10.70
2018-09-08T06:37:49.278Z,12.40
2018-09-08T06:40:24.648Z,9.55
2018-09-08T06:42:59.889Z,8.90
2018-09-08T06:45:35.388Z,21.97
2018-09-08T06:48:10.705Z,11.68
2018-09-08T06:50:46.155Z,10.45
2018-09-08T06:53:21.585Z,14.07
2018-09-08T06:55:56.766Z,11.60
2018-09-08T06:58:32.118Z,16.45
2018-09-08T07:01:07.456Z,11.55
2018-09-08T07:03:42.806Z,10.40
2018-09-08T07:06:18.107Z,13.72
2018-09-08T07:08:53.315Z,9.38
2018-09-08T07:11:28.487Z,8.25
2018-09-08T07:14:03.940Z,8.38
2018-09-08T07:16:39.375Z,8.23
2018-09-08T07:19:14.740Z,12.55
2018-09-08T07:21:50.587Z,11.97
2018-09-08T07:24:26.159Z,11.05
2018-09-08T07:27:01.478Z,7.67
2018-09-08T07:29:36.958Z,9.45
2018-09-08T07:32:12.389Z,8.58
2018-09-08T07:34:47.818Z,7.40
2018-09-08T07:37:23.243Z,8.80
2018-09-08T07:39:58.738Z,8.43
2018-09-08T07:42:34.185Z,6.60
2018-09-08T07:45:09.725Z,8.15
2018-09-08T07:47:44.962Z,6.60
2018-09-08T07:50:20.416Z,10.53
2018-09-08T07:52:55.677Z,9.85
2018-09-08T07:55:31.158Z,6.03
2018-09-08T07:58:06.805Z,7.37
2018-09-08T08:00:42.379Z,5.65
2018-09-08T08:03:17.909Z,5.67
2018-09-08T08:05:53.285Z,6.33
2018-09-08T08:08:28.636Z,7.78
2018-09-08T08:11:04.337Z,6.47
2018-09-08T08:13:39.849Z,9.08
2018-09-08T08:16:15.467Z,9.08
2018-09-08T08:18:50.956Z,8.55
2018-09-08T08:21:26.255Z,8.45
2018-09-08T08:24:01.694Z,5.58
2018-09-08T08:26:37.085Z,6.03
2018-09-08T08:29:12.475Z,4.30
2018-09-08T08:31:47.825Z,7.53
2018-09-08T08:34:23.336Z,5.80
2018-09-08T08:36:58.785Z,6.47
2018-09-08T08:39:34.268Z,5.70
2018-09-08T08:42:09.835Z,6.67
2018-09-08T08:44:45.165Z,7.22
2018-09-08T08:47:20.724Z,6.42
2018-09-08T08:50:07.225Z,6.30
2018-09-08T08:53:54.605Z,7.00
2018-09-08T08:56:30.038Z,5.50
2018-09-08T08:59:05.389Z,8.37
2018-09-08T09:01:41.038Z,8.60
2018-09-08T09:04:16.295Z,7.87
2018-09-08T09:06:51.706Z,8.78
2018-09-08T09:09:27.158Z,7.40
2018-09-08T09:12:02.868Z,8.23
2018-09-08T09:14:38.347Z,5.95
2018-09-08T09:17:13.780Z,12.18
2018-09-08T09:20:00.243Z,8.75
2018-09-08T09:22:46.703Z,8.08
2018-09-08T09:25:22.415Z,6.78
2018-09-08T09:27:57.832Z,9.48
2018-09-08T09:30:33.298Z,6.35
2018-09-08T09:33:08.616Z,10.82
2018-09-08T09:35:43.891Z,8.18
2018-09-08T09:38:19.361Z,8.45
2018-09-08T09:40:54.905Z,7.90
2018-09-08T09:43:30.259Z,9.03
2018-09-08T09:46:05.505Z,7.17
2018-09-08T09:48:40.847Z,10.40
2018-09-08T09:51:16.128Z,7.57
2018-09-08T09:53:51.527Z,6.67
2018-09-08T09:56:27.448Z,7.50
2018-09-08T09:59:02.827Z,6.77
2018-09-08T10:01:48.404Z,6.33
2018-09-08T10:04:24.035Z,6.60
2018-09-08T10:06:59.627Z,12.70
2018-09-08T10:09:35.135Z,8.97
2018-09-08T10:12:10.451Z,18.90
2018-09-08T10:14:46.178Z,9.80
2018-09-08T10:17:21.705Z,8.03
2018-09-08T10:19:57.257Z,8.70
2018-09-08T10:22:32.695Z,8.63
2018-09-08T10:25:09.798Z,7.00
2018-09-08T10:27:45.957Z,6.90
2018-09-08T10:30:21.427Z,8.50
2018-09-08T10:32:56.815Z,7.57
2018-09-08T10:35:32.228Z,7.47
2018-09-08T10:38:07.546Z,6.10
2018-09-08T10:40:42.829Z,6.37
2018-09-08T10:43:18.325Z,8.03
2018-09-08T10:45:53.666Z,6.77
2018-09-08T10:48:28.908Z,6.93
2018-09-08T10:51:49.184Z,10.07
2018-09-08T10:54:24.485Z,8.13
2018-09-08T10:56:59.998Z,5.00
2018-09-08T10:59:35.397Z,3.97
2018-09-08T11:02:11.174Z,7.47
2018-09-08T11:04:46.516Z,7.07
2018-09-08T11:07:21.918Z,5.90
2018-09-08T11:09:57.234Z,3.93
2018-09-08T11:12:32.725Z,6.60
2018-09-08T11:15:09.276Z,8.40
2018-09-08T11:17:44.645Z,4.13
2018-09-08T11:20:20.292Z,5.23
2018-09-08T11:22:55.788Z,7.40
2018-09-08T11:25:31.195Z,4.73
2018-09-08T11:28:06.425Z,5.97
2018-09-08T11:30:41.809Z,4.37
2018-09-08T11:33:17.389Z,4.40
2018-09-08T11:35:53.072Z,5.60
2018-09-08T11:38:28.516Z,8.40
2018-09-08T11:41:03.806Z,7.40
2018-09-08T11:43:39.165Z,5.67
2018-09-08T11:46:14.788Z,7.13
2018-09-08T11:48:50.235Z,4.80
2018-09-08T11:51:25.688Z,4.87
2018-09-08T11:54:01.349Z,7.43
2018-09-08T11:56:36.706Z,4.53
2018-09-08T11:59:12.056Z,3.80
2018-09-08T12:01:47.399Z,3.87
2018-09-08T12:04:22.894Z,6.40
2018-09-08T12:06:58.326Z,3.60
2018-09-08T12:09:33.878Z,4.30
2018-09-08T12:12:09.385Z,4.93
2018-09-08T12:14:45.195Z,2.90
2018-09-08T12:17:20.861Z,5.93
2018-09-08T12:19:56.519Z,5.30
2018-09-08T12:22:31.943Z,3.90
2018-09-08T12:25:07.426Z,5.33
2018-09-08T12:27:42.869Z,4.00
2018-09-08T12:30:18.382Z,6.83
2018-09-08T12:32:53.683Z,7.50
2018-09-08T12:35:29.224Z,3.00
2018-09-08T12:38:04.767Z,6.67
2018-09-08T12:40:40.138Z,4.60
2018-09-08T12:43:15.476Z,4.93
2018-09-08T12:45:50.786Z,2.80
2018-09-08T12:48:26.178Z,7.20
2018-09-08T12:51:01.668Z,3.60
2018-09-08T12:53:36.991Z,3.97
2018-09-08T12:56:12.330Z,5.70
2018-09-08T12:58:47.658Z,6.50
2018-09-08T13:01:23.238Z,9.10
2018-09-08T13:03:58.799Z,3.60
2018-09-08T13:06:34.448Z,4.53
2018-09-08T13:09:10.108Z,4.10
2018-09-08T13:11:45.547Z,4.70
2018-09-08T13:14:20.887Z,5.40
2018-09-08T13:16:56.158Z,4.27
2018-09-08T13:19:31.814Z,4.23
2018-09-08T13:22:07.275Z,3.47
2018-09-08T13:24:42.715Z,5.77
2018-09-08T13:27:18.459Z,8.17
2018-09-08T13:29:53.997Z,3.53
2018-09-08T13:32:29.669Z,3.80
2018-09-08T13:35:05.287Z,4.00
2018-09-08T13:37:40.708Z,4.20
2018-09-08T13:40:16.015Z,4.50
2018-09-08T13:42:51.455Z,5.57
2018-09-08T13:45:26.867Z,5.00
2018-09-08T13:48:02.155Z,4.03
2018-09-08T13:50:37.473Z,3.57
2018-09-08T13:53:12.854Z,3.27
2018-09-08T13:55:48.076Z,6.77
2018-09-08T13:58:23.585Z,5.03
2018-09-08T14:00:59.041Z,4.03
2018-09-08T14:03:34.707Z,5.13
2018-09-08T14:06:10.686Z,8.47
2018-09-08T14:08:45.973Z,5.47
2018-09-08T14:11:21.305Z,5.50
2018-09-08T14:13:56.670Z,6.20
2018-09-08T14:16:31.837Z,5.00
2018-09-08T14:19:07.398Z,3.07
2018-09-08T14:21:42.786Z,7.80
2018-09-08T14:24:18.115Z,6.10
2018-09-08T14:26:53.572Z,2.70
2018-09-08T14:29:29.020Z,8.80
2018-09-08T14:32:04.456Z,4.17
2018-09-08T14:34:39.815Z,4.27
2018-09-08T14:37:15.480Z,3.53
2018-09-08T14:39:50.978Z,4.00
2018-09-08T14:42:26.319Z,4.83
2018-09-08T14:45:01.736Z,3.57
2018-09-08T14:47:37.404Z,3.63
2018-09-08T14:50:12.857Z,4.03
2018-09-08T14:52:48.435Z,4.93
2018-09-08T14:55:23.775Z,2.70
2018-09-08T14:57:59.215Z,3.13
2018-09-08T15:00:34.598Z,2.73
2018-09-08T15:03:09.925Z,2.50
2018-09-08T15:05:45.164Z,3.47
2018-09-08T15:08:20.946Z,4.23
2018-09-08T15:10:56.285Z,4.63
2018-09-08T15:13:31.627Z,3.90
2018-09-08T15:16:07.136Z,5.43
2018-09-08T15:18:42.660Z,3.00
2018-09-08T15:21:18.317Z,3.27
2018-09-08T15:23:54.176Z,6.20
2018-09-08T15:26:29.684Z,4.83
2018-09-08T15:29:05.154Z,5.10
2018-09-08T15:31:40.615Z,3.10
2018-09-08T15:34:15.757Z,2.93
2018-09-08T15:36:51.355Z,7.07
2018-09-08T15:39:26.775Z,5.67
2018-09-08T15:42:02.186Z,3.50
2018-09-08T15:44:37.385Z,3.90
2018-09-08T15:47:12.999Z,4.30
2018-09-08T15:49:48.400Z,6.53
2018-09-08T15:52:23.595Z,2.40
2018-09-08T15:54:59.035Z,7.07
2018-09-08T15:57:34.408Z,3.23
2018-09-08T16:00:10.024Z,4.17
2018-09-08T16:02:45.362Z,5.80
2018-09-08T16:05:20.890Z,7.93
2018-09-08T16:07:56.556Z,5.57
2018-09-08T16:10:33.578Z,5.60
2018-09-08T16:13:09.056Z,4.63
2018-09-08T16:15:44.458Z,4.70
2018-09-08T16:18:19.888Z,4.33
2018-09-08T16:20:55.255Z,4.90
2018-09-08T16:23:30.497Z,6.17
2018-09-08T16:26:05.878Z,4.73
2018-09-08T16:28:41.336Z,3.57
2018-09-08T16:31:16.720Z,6.80
2018-09-08T16:33:52.027Z,4.47
2018-09-08T16:36:27.506Z,5.10
2018-09-08T16:39:02.775Z,5.50
2018-09-08T16:41:38.349Z,3.77
2018-09-08T16:44:13.793Z,7.90
2018-09-08T16:46:49.225Z,8.20
2018-09-08T16:49:24.826Z,4.10
2018-09-08T16:52:00.141Z,6.20
2018-09-08T16:54:35.715Z,10.10
2018-09-08T16:57:11.234Z,7.63
2018-09-08T16:59:46.527Z,4.73
2018-09-08T17:02:22.207Z,4.63
2018-09-08T17:04:57.646Z,4.37
2018-09-08T17:07:33.191Z,3.93
2018-09-08T17:10:08.847Z,7.60
2018-09-08T17:12:44.408Z,4.23
2018-09-08T17:15:19.824Z,3.60
2018-09-08T17:17:55.228Z,7.70
2018-09-08T17:20:30.767Z,4.67
2018-09-08T17:23:06.478Z,5.67
2018-09-08T17:25:41.740Z,4.50
2018-09-08T17:28:17.115Z,5.70
2018-09-08T17:30:52.775Z,4.23
2018-09-08T17:33:28.370Z,2.90
2018-09-08T17:36:03.897Z,4.07
2018-09-08T17:38:39.264Z,8.90
2018-09-08T17:41:14.829Z,3.70
2018-09-08T17:43:50.335Z,4.58
2018-09-08T17:46:25.738Z,3.50
2018-09-08T17:49:01.481Z,4.90
2018-09-08T17:51:37.005Z,4.60
2018-09-08T17:54:12.668Z,4.93
2018-09-08T17:56:48.246Z,3.80
2018-09-08T17:59:23.488Z,4.05
2018-09-08T18:01:59.079Z,5.47
2018-09-08T18:04:34.498Z,4.47
2018-09-08T18:07:13.560Z,5.92
2018-09-08T18:09:49.196Z,4.65
2018-09-08T18:12:24.799Z,5.72
2018-09-08T18:15:00.349Z,8.48
2018-09-08T18:17:35.923Z,3.65
2018-09-08T18:20:11.235Z,7.37
2018-09-08T18:22:46.498Z,6.33
2018-09-08T18:25:21.959Z,4.62
2018-09-08T18:27:57.438Z,5.85
2018-09-08T18:30:32.989Z,9.50
2018-09-08T18:33:08.379Z,5.33
2018-09-08T18:35:43.665Z,5.37
2018-09-08T18:38:19.286Z,7.30
2018-09-08T18:40:54.645Z,9.20
2018-09-08T18:43:29.864Z,5.83
2018-09-08T18:46:05.100Z,6.05
2018-09-08T18:48:40.459Z,7.75
2018-09-08T18:51:15.906Z,6.87
2018-09-08T18:53:51.256Z,7.47
2018-09-08T18:56:26.706Z,5.60
2018-09-08T18:59:02.038Z,3.72
2018-09-08T19:01:37.388Z,6.35
2018-09-08T19:04:12.948Z,4.72
2018-09-08T19:06:48.456Z,4.85
2018-09-08T19:09:24.145Z,7.15
2018-09-08T19:11:59.579Z,6.58
2018-09-08T19:14:39.905Z,4.25
2018-09-08T19:17:15.355Z,3.75
2018-09-08T19:19:52.945Z,6.97
2018-09-08T19:22:28.495Z,5.87
2018-09-08T19:25:04.238Z,6.45
2018-09-08T19:27:39.637Z,5.08
2018-09-08T19:30:14.895Z,8.88
2018-09-08T19:32:50.342Z,13.43
2018-09-08T19:35:31.217Z,7.00
2018-09-08T19:38:07.046Z,4.47
2018-09-08T19:40:45.836Z,5.00
2018-09-08T19:43:21.305Z,10.28
2018-09-08T19:45:56.964Z,6.00
2018-09-08T19:48:32.405Z,4.45
2018-09-08T19:51:08.068Z,8.78
2018-09-08T19:53:48.530Z,4.72
2018-09-08T19:56:29.069Z,5.37
2018-09-08T19:59:04.546Z,4.17
2018-09-08T20:01:39.949Z,6.92
2018-09-08T20:04:15.196Z,5.08
2018-09-08T20:06:50.443Z,6.30
2018-09-08T20:09:25.773Z,7.00
2018-09-08T20:12:01.059Z,6.25
2018-09-08T20:14:36.340Z,5.10
2018-09-08T20:17:11.661Z,5.50
2018-09-08T20:19:51.889Z,6.42
2018-09-08T20:22:28.176Z,6.12
2018-09-08T20:25:03.800Z,7.05
2018-09-08T20:27:39.308Z,5.37
2018-09-08T20:30:14.835Z,10.85
2018-09-08T20:32:50.270Z,7.58
2018-09-08T20:35:25.617Z,5.17
2018-09-08T20:38:00.905Z,9.13
2018-09-08T20:40:36.325Z,7.20
2018-09-08T20:43:11.635Z,6.55
2018-09-08T20:45:47.386Z,5.70
2018-09-08T20:48:22.997Z,6.80
2018-09-08T20:50:58.547Z,5.80
2018-09-08T20:53:33.795Z,6.25
2018-09-08T20:56:09.135Z,5.00
2018-09-08T20:58:44.555Z,5.60
2018-09-08T21:01:19.929Z,8.75
2018-09-08T21:03:55.289Z,9.05
2018-09-08T21:06:30.575Z,15.48
2018-09-08T21:09:06.640Z,13.88
2018-09-08T21:11:42.286Z,5.55
2018-09-08T21:14:17.749Z,11.63
2018-09-08T21:16:53.555Z,7.72
2018-09-08T21:19:29.142Z,8.00
2018-09-08T21:22:04.508Z,8.38
2018-09-08T21:24:39.977Z,6.45
2018-09-08T21:27:15.426Z,5.30
2018-09-08T21:29:50.801Z,7.42
2018-09-08T21:32:26.192Z,7.45
2018-09-08T21:35:01.485Z,6.20
2018-09-08T21:37:36.828Z,6.97
2018-09-08T21:40:12.149Z,7.15
2018-09-08T21:42:47.516Z,8.58
2018-09-08T21:45:22.659Z,8.10
2018-09-08T21:47:58.158Z,8.73
2018-09-08T21:50:33.600Z,7.75
2018-09-08T21:53:08.855Z,6.72
2018-09-08T21:55:44.295Z,8.40
2018-09-08T21:58:19.489Z,6.03
2018-09-08T22:00:56.001Z,6.40
2018-09-08T22:03:31.255Z,6.17
2018-09-08T22:06:06.707Z,6.87
2018-09-08T22:08:42.122Z,5.72
2018-09-08T22:11:17.626Z,8.25
2018-09-08T22:13:53.067Z,8.15
2018-09-08T22:16:28.689Z,4.50
2018-09-08T22:19:04.168Z,6.05
2018-09-08T22:21:39.676Z,4.80
2018-09-08T22:24:15.128Z,5.28
2018-09-08T22:26:50.738Z,6.03
2018-09-08T22:29:26.276Z,7.30
2018-09-08T22:32:01.791Z,6.12
2018-09-08T22:34:37.069Z,5.35
2018-09-08T22:37:12.449Z,6.40
2018-09-08T22:39:47.888Z,4.45
2018-09-08T22:42:23.409Z,5.55
2018-09-08T22:44:58.919Z,5.60
2018-09-08T22:47:34.529Z,7.65
2018-09-08T22:50:09.890Z,5.25
2018-09-08T22:52:45.469Z,5.87
2018-09-08T22:55:20.949Z,6.75
2018-09-08T22:57:56.568Z,7.15
2018-09-08T23:00:31.999Z,4.87
2018-09-08T23:03:07.809Z,9.30
2018-09-08T23:05:43.041Z,9.65
2018-09-08T23:08:18.458Z,5.22
2018-09-08T23:10:53.676Z,5.30
2018-09-08T23:13:29.189Z,6.87
2018-09-08T23:16:04.568Z,6.25
2018-09-08T23:18:39.838Z,6.45
2018-09-08T23:21:15.395Z,6.05
2018-09-08T23:23:50.698Z,7.65
2018-09-08T23:26:26.059Z,8.35
2018-09-08T23:29:01.351Z,5.50
2018-09-08T23:31:36.848Z,5.87
2018-09-08T23:34:12.248Z,7.90
2018-09-08T23:36:47.587Z,5.60
2018-09-08T23:39:23.221Z,9.98
2018-09-08T23:41:58.704Z,6.37
2018-09-08T23:44:34.286Z,8.43
2018-09-08T23:47:09.828Z,7.60
2018-09-08T23:49:45.259Z,7.80
2018-09-08T23:52:20.599Z,16.23
2018-09-08T23:54:55.996Z,6.58
2018-09-08T23:57:31.646Z,6.95
